createdAt,value
2023-04-27T00:02:26.879Z,74.79
2023-04-27T00:05:30.485Z,74.73
2023-04-27T00:08:34.729Z,76.30
2023-04-27T00:11:38.246Z,76.05
2023-04-27T00:14:41.764Z,76.48
2023-04-27T00:17:44.962Z,76.77
2023-04-27T00:20:48.020Z,76.69
2023-04-27T00:23:51.750Z,77.36
2023-04-27T00:26:54.900Z,78.00
2023-04-27T00:29:58.093Z,77.93
2023-04-27T00:33:02.971Z,78.30
2023-04-27T00:36:06.852Z,78.31
2023-04-27T00:39:09.846Z,78.28
2023-04-27T00:42:15.515Z,79.12
2023-04-27T00:45:18.309Z,78.26
2023-04-27T00:48:21.551Z,78.40
2023-04-27T00:51:30.300Z,78.49
2023-04-27T00:54:33.734Z,77.16
2023-04-27T00:57:36.675Z,78.74
2023-04-27T01:00:40.447Z,79.09
2023-04-27T01:03:45.178Z,79.21
2023-04-27T01:06:50.696Z,79.42
2023-04-27T01:09:53.694Z,80.01
2023-04-27T01:12:58.333Z,78.87
2023-04-27T01:16:01.357Z,79.74
2023-04-27T01:19:05.150Z,79.92
2023-04-27T01:22:08.279Z,79.49
2023-04-27T01:25:12.766Z,79.38
2023-04-27T01:28:15.722Z,79.55
2023-04-27T01:31:18.933Z,79.72
2023-04-27T01:34:23.125Z,80.12
2023-04-27T01:37:27.293Z,79.31
2023-04-27T01:40:30.177Z,78.86
2023-04-27T01:43:33.470Z,79.95
2023-04-27T01:46:37.400Z,80.08
2023-04-27T01:49:40.661Z,80.18
2023-04-27T01:52:44.695Z,80.24
2023-04-27T01:55:47.923Z,80.31
2023-04-27T01:58:53.399Z,80.16
2023-04-27T02:01:57.304Z,80.41
2023-04-27T02:05:00.609Z,80.22
2023-04-27T02:08:03.784Z,80.53
2023-04-27T02:11:07.142Z,80.46
2023-04-27T02:14:10.098Z,80.24
2023-04-27T02:17:14.485Z,80.32
2023-04-27T02:20:17.401Z,80.52
2023-04-27T02:23:20.855Z,80.51
2023-04-27T02:26:29.320Z,80.44
2023-04-27T02:29:32.818Z,80.71
2023-04-27T02:32:36.465Z,80.93
2023-04-27T02:35:40.762Z,81.36
2023-04-27T02:38:43.719Z,81.77
2023-04-27T02:41:46.956Z,81.97
2023-04-27T02:44:51.461Z,82.03
2023-04-27T02:47:55.214Z,83.86
2023-04-27T02:50:58.246Z,83.78
2023-04-27T02:54:02.223Z,84.12
2023-04-27T02:57:07.070Z,84.09
2023-04-27T03:00:11.176Z,84.23
2023-04-27T03:03:14.308Z,84.33
2023-04-27T03:06:17.689Z,85.55
2023-04-27T03:09:20.761Z,86.36
2023-04-27T03:12:24.070Z,85.67
2023-04-27T03:15:26.960Z,85.51
2023-04-27T03:18:30.172Z,85.37
2023-04-27T03:21:33.290Z,85.44
2023-04-27T03:24:36.492Z,84.39
2023-04-27T03:27:39.482Z,84.74
2023-04-27T03:30:42.941Z,85.29
2023-04-27T03:33:46.053Z,86.08
2023-04-27T03:36:51.357Z,86.39
2023-04-27T03:39:55.264Z,86.69
2023-04-27T03:42:59.233Z,86.95
2023-04-27T03:46:02.448Z,86.91
2023-04-27T03:49:05.871Z,86.86
2023-04-27T03:52:08.854Z,86.88
2023-04-27T03:55:13.658Z,86.61
2023-04-27T03:58:18.065Z,86.40
2023-04-27T04:01:22.708Z,86.68
2023-04-27T04:04:26.637Z,86.70
2023-04-27T04:07:30.011Z,85.30
2023-04-27T04:10:33.382Z,85.36
2023-04-27T04:13:36.773Z,85.46
2023-04-27T04:16:40.220Z,85.59
2023-04-27T04:19:43.424Z,84.38
2023-04-27T04:22:47.888Z,84.32
2023-04-27T04:25:51.202Z,84.90
2023-04-27T04:28:56.084Z,85.00
2023-04-27T04:32:00.190Z,84.92
2023-04-27T04:35:07.889Z,84.87
2023-04-27T04:38:11.551Z,84.52
2023-04-27T04:41:14.999Z,83.02
2023-04-27T04:44:18.000Z,82.75
2023-04-27T04:47:21.682Z,83.30
2023-04-27T04:50:24.664Z,83.58
2023-04-27T04:53:27.862Z,83.44
2023-04-27T04:56:31.605Z,82.18
2023-04-27T04:59:36.542Z,79.89
2023-04-27T05:02:41.154Z,78.91
2023-04-27T05:05:44.500Z,80.04
2023-04-27T05:08:47.498Z,81.17
2023-04-27T05:11:50.739Z,81.66
2023-04-27T05:14:53.702Z,81.93
2023-04-27T05:17:58.176Z,81.36
2023-04-27T05:21:01.397Z,78.06
2023-04-27T05:24:05.365Z,77.16
2023-04-27T05:27:08.378Z,78.96
2023-04-27T05:30:12.450Z,81.64
2023-04-27T05:33:15.665Z,82.82
2023-04-27T05:36:18.885Z,82.60
2023-04-27T05:39:21.775Z,79.24
2023-04-27T05:42:25.004Z,81.12
2023-04-27T05:45:28.168Z,80.91
2023-04-27T05:48:31.471Z,81.08
2023-04-27T05:51:34.645Z,80.76
2023-04-27T05:54:37.839Z,80.55
2023-04-27T05:57:41.542Z,79.56
2023-04-27T06:00:46.543Z,77.94
2023-04-27T06:03:51.175Z,76.16
2023-04-27T06:06:56.997Z,75.19
2023-04-27T06:10:00.432Z,72.37
2023-04-27T06:13:04.141Z,69.31
2023-04-27T06:16:07.430Z,67.62
2023-04-27T06:19:10.333Z,69.90
2023-04-27T06:22:13.520Z,68.99
2023-04-27T06:25:16.582Z,67.35
2023-04-27T06:28:19.850Z,68.01
2023-04-27T06:31:23.128Z,67.95
2023-04-27T06:34:27.186Z,68.48
2023-04-27T06:37:30.258Z,67.20
2023-04-27T06:40:33.633Z,68.12
2023-04-27T06:43:36.652Z,65.49
2023-04-27T06:46:39.904Z,65.84
2023-04-27T06:49:42.827Z,64.28
2023-04-27T06:52:46.112Z,63.73
2023-04-27T06:55:51.208Z,64.63
2023-04-27T06:58:55.738Z,64.03
2023-04-27T07:01:59.033Z,61.84
2023-04-27T07:05:03.213Z,63.90
2023-04-27T07:08:08.530Z,63.42
2023-04-27T07:11:13.620Z,62.94
2023-04-27T07:14:16.523Z,62.83
2023-04-27T07:17:19.991Z,60.57
2023-04-27T07:20:24.853Z,60.72
2023-04-27T07:23:28.251Z,61.59
2023-04-27T07:26:32.164Z,60.74
2023-04-27T07:29:35.470Z,60.37
2023-04-27T07:32:40.697Z,60.46
2023-04-27T07:35:43.892Z,59.48
2023-04-27T07:38:46.947Z,59.10
2023-04-27T07:41:50.534Z,57.17
2023-04-27T07:44:54.349Z,57.37
2023-04-27T07:48:00.225Z,57.09
2023-04-27T07:51:03.315Z,53.32
2023-04-27T07:54:06.721Z,52.28
2023-04-27T07:57:11.932Z,53.71
2023-04-27T08:00:17.172Z,53.58
2023-04-27T08:03:20.434Z,54.86
2023-04-27T08:06:24.872Z,51.86
2023-04-27T08:09:28.201Z,53.17
2023-04-27T08:12:31.247Z,51.13
2023-04-27T08:15:34.100Z,52.65
2023-04-27T08:18:36.970Z,50.87
2023-04-27T08:21:40.200Z,47.89
2023-04-27T08:24:43.146Z,46.91
2023-04-27T08:27:46.362Z,45.03
2023-04-27T08:30:49.358Z,41.00
2023-04-27T08:33:53.657Z,40.18
2023-04-27T08:36:57.189Z,41.44
2023-04-27T08:40:00.512Z,41.80
2023-04-27T08:43:05.069Z,41.70
2023-04-27T08:46:08.172Z,42.05
2023-04-27T08:49:13.693Z,42.16
2023-04-27T08:52:18.722Z,43.64
2023-04-27T08:55:21.831Z,43.71
2023-04-27T08:58:37.286Z,42.48
2023-04-27T09:01:43.897Z,43.42
2023-04-27T09:04:47.306Z,41.95
2023-04-27T09:08:05.882Z,39.48
2023-04-27T09:11:09.193Z,40.01
2023-04-27T09:14:23.394Z,38.35
2023-04-27T09:17:27.991Z,38.05
2023-04-27T09:20:30.921Z,38.68
2023-04-27T09:23:35.802Z,36.54
2023-04-27T09:26:38.870Z,36.30
2023-04-27T09:29:41.742Z,36.91
2023-04-27T09:32:58.942Z,36.88
2023-04-27T09:36:04.457Z,36.45
2023-04-27T09:39:07.223Z,37.87
2023-04-27T09:42:12.462Z,37.54
2023-04-27T09:45:15.544Z,37.54
2023-04-27T09:48:18.998Z,37.86
2023-04-27T09:51:22.003Z,37.60
2023-04-27T09:54:28.411Z,38.63
2023-04-27T09:57:58.893Z,39.32
2023-04-27T10:01:07.427Z,38.01
2023-04-27T10:04:35.990Z,38.87
2023-04-27T10:07:41.196Z,37.38
2023-04-27T10:10:50.527Z,37.59
2023-04-27T10:13:55.194Z,36.87
2023-04-27T10:16:59.476Z,37.41
2023-04-27T10:20:10.215Z,38.47
2023-04-27T10:23:26.139Z,39.08
2023-04-27T10:26:29.031Z,38.86
2023-04-27T10:29:43.035Z,39.25
2023-04-27T10:32:54.320Z,38.85
2023-04-27T10:36:00.679Z,38.51
2023-04-27T10:39:14.994Z,38.78
2023-04-27T10:42:28.862Z,38.07
2023-04-27T10:45:34.432Z,34.81
2023-04-27T10:48:42.590Z,36.84
2023-04-27T10:51:47.124Z,35.58
2023-04-27T10:54:50.712Z,35.41
2023-04-27T10:57:55.556Z,35.54
2023-04-27T11:00:58.822Z,36.48
2023-04-27T11:04:02.457Z,36.84
2023-04-27T11:07:06.354Z,38.09
2023-04-27T11:10:09.950Z,36.23
2023-04-27T11:13:15.906Z,36.73
